createdAt,value
2023-05-13T00:00:02.678Z,1014.61
2023-05-13T00:01:02.662Z,1014.67
2023-05-13T00:02:02.675Z,1014.62
2023-05-13T00:03:02.737Z,1014.64
2023-05-13T00:04:02.614Z,1014.68
2023-05-13T00:05:02.594Z,1014.63
2023-05-13T00:06:02.641Z,1014.70
2023-05-13T00:07:02.557Z,1014.71
2023-05-13T00:08:02.568Z,1014.65
2023-05-13T00:09:02.550Z,1014.68
2023-05-13T00:10:02.561Z,1014.71
2023-05-13T00:11:02.530Z,1014.68
2023-05-13T00:12:02.507Z,1014.70
2023-05-13T00:13:02.484Z,1014.65
2023-05-13T00:14:02.482Z,1014.68
2023-05-13T00:15:02.486Z,1014.69
2023-05-13T00:16:02.457Z,1014.59
2023-05-13T00:17:02.445Z,1014.73
2023-05-13T00:18:02.485Z,1014.70
2023-05-13T00:19:02.441Z,1014.76
2023-05-13T00:20:02.417Z,1014.69
2023-05-13T00:21:02.401Z,1014.73
2023-05-13T00:22:02.383Z,1014.70
2023-05-13T00:23:02.383Z,1014.70
2023-05-13T00:24:02.352Z,1014.70
2023-05-13T00:25:02.361Z,1014.70
2023-05-13T00:26:02.360Z,1014.70
2023-05-13T00:27:02.299Z,1014.70
2023-05-13T00:28:02.304Z,1014.73
2023-05-13T00:29:02.297Z,1014.67
2023-05-13T00:30:02.326Z,1014.69
2023-05-13T00:31:02.259Z,1014.72
2023-05-13T00:32:02.299Z,1014.72
2023-05-13T00:33:02.271Z,1014.72
2023-05-13T00:34:02.239Z,1014.77
2023-05-13T00:35:02.206Z,1014.77
2023-05-13T00:36:02.189Z,1014.77
2023-05-13T00:37:02.210Z,1014.75
2023-05-13T00:38:02.172Z,1014.74
2023-05-13T00:39:02.166Z,1014.80
2023-05-13T00:40:02.174Z,1014.83
2023-05-13T00:41:02.118Z,1014.82
2023-05-13T00:42:02.100Z,1014.82
2023-05-13T00:43:02.116Z,1014.80
2023-05-13T00:44:02.096Z,1014.78
2023-05-13T00:45:02.086Z,1014.80
2023-05-13T00:46:02.125Z,1014.82
2023-05-13T00:47:02.059Z,1014.83
2023-05-13T00:48:02.175Z,1014.85
2023-05-13T00:49:02.031Z,1014.83
2023-05-13T00:50:02.014Z,1014.81
2023-05-13T00:51:02.025Z,1014.88
2023-05-13T00:52:01.977Z,1014.90
2023-05-13T00:53:01.962Z,1014.89
2023-05-13T00:54:01.984Z,1014.88
2023-05-13T00:55:01.957Z,1014.91
2023-05-13T00:56:01.929Z,1014.89
2023-05-13T00:57:01.910Z,1014.87
2023-05-13T00:58:01.924Z,1014.87
2023-05-13T00:59:01.918Z,1014.86
2023-05-13T01:00:01.898Z,1014.86
2023-05-13T01:01:01.904Z,1014.89
2023-05-13T01:02:01.870Z,1014.94
2023-05-13T01:03:01.855Z,1014.90
2023-05-13T01:04:01.837Z,1014.97
2023-05-13T01:05:01.798Z,1014.97
2023-05-13T01:06:01.814Z,1014.93
2023-05-13T01:07:01.765Z,1014.93
2023-05-13T01:08:01.774Z,1014.95
2023-05-13T01:09:01.745Z,1014.95
2023-05-13T01:10:01.753Z,1014.98
2023-05-13T01:11:01.719Z,1014.98
2023-05-13T01:12:01.723Z,1014.93
2023-05-13T01:13:01.703Z,1014.97
2023-05-13T01:14:01.684Z,1014.97
2023-05-13T01:15:01.682Z,1014.99
2023-05-13T01:16:01.686Z,1014.96
2023-05-13T01:17:01.760Z,1014.92
2023-05-13T01:18:01.726Z,1015.02
2023-05-13T01:19:01.686Z,1015.02
2023-05-13T01:20:01.658Z,1014.94
2023-05-13T01:21:01.619Z,1015.02
2023-05-13T01:22:01.593Z,1015.04
2023-05-13T01:23:01.578Z,1014.98
2023-05-13T01:24:01.603Z,1015.04
2023-05-13T01:25:01.543Z,1015.04
2023-05-13T01:26:01.542Z,1015.06
2023-05-13T01:27:01.552Z,1015.14
2023-05-13T01:28:01.548Z,1015.15
2023-05-13T01:29:01.484Z,1015.13
2023-05-13T01:30:01.512Z,1015.16
2023-05-13T01:31:01.499Z,1015.19
2023-05-13T01:32:01.456Z,1015.21
2023-05-13T01:33:01.512Z,1015.22
2023-05-13T01:34:01.438Z,1015.20
2023-05-13T01:35:01.437Z,1015.24
2023-05-13T01:36:01.400Z,1015.23
2023-05-13T01:37:01.383Z,1015.25
2023-05-13T01:38:01.383Z,1015.25
2023-05-13T01:39:01.377Z,1015.25
2023-05-13T01:40:01.560Z,1015.26
2023-05-13T01:41:01.365Z,1015.24
2023-05-13T01:42:01.318Z,1015.30
2023-05-13T01:43:01.322Z,1015.28
2023-05-13T01:44:01.328Z,1015.26
2023-05-13T01:45:01.312Z,1015.28
2023-05-13T01:46:01.371Z,1015.29
2023-05-13T01:47:01.257Z,1015.33
2023-05-13T01:48:01.276Z,1015.27
2023-05-13T01:49:01.265Z,1015.30
2023-05-13T01:50:01.232Z,1015.26
2023-05-13T01:51:01.203Z,1015.26
2023-05-13T01:52:01.201Z,1015.28
2023-05-13T01:53:01.185Z,1015.27
2023-05-13T01:54:01.179Z,1015.25
2023-05-13T01:55:01.162Z,1015.29
2023-05-13T01:56:01.143Z,1015.26
2023-05-13T01:57:01.145Z,1015.26
2023-05-13T01:58:01.146Z,1015.24
2023-05-13T01:59:01.125Z,1015.26
2023-05-13T02:00:01.128Z,1015.31
2023-05-13T02:01:01.077Z,1015.34
2023-05-13T02:02:01.114Z,1015.29
2023-05-13T02:03:01.149Z,1015.32
2023-05-13T02:04:01.137Z,1015.29
2023-05-13T02:05:01.025Z,1015.34
2023-05-13T02:06:01.053Z,1015.33
2023-05-13T02:07:01.006Z,1015.36
2023-05-13T02:08:00.998Z,1015.33
2023-05-13T02:09:00.966Z,1015.29
2023-05-13T02:10:00.988Z,1015.31
2023-05-13T02:11:00.975Z,1015.34
2023-05-13T02:12:00.954Z,1015.29
2023-05-13T02:13:00.936Z,1015.32
2023-05-13T02:14:00.912Z,1015.35
2023-05-13T02:15:00.919Z,1015.28
2023-05-13T02:16:00.949Z,1015.30
2023-05-13T02:17:00.878Z,1015.31
2023-05-13T02:18:00.915Z,1015.35
2023-05-13T02:19:00.902Z,1015.31
2023-05-13T02:20:00.885Z,1015.35
2023-05-13T02:21:00.841Z,1015.36
2023-05-13T02:22:00.822Z,1015.37
2023-05-13T02:23:00.801Z,1015.31
2023-05-13T02:24:00.788Z,1015.32
2023-05-13T02:25:00.792Z,1015.34
2023-05-13T02:26:00.771Z,1015.37
2023-05-13T02:27:00.754Z,1015.33
2023-05-13T02:28:00.764Z,1015.29
2023-05-13T02:29:00.715Z,1015.31
2023-05-13T02:30:00.742Z,1015.34
2023-05-13T02:31:00.724Z,1015.32
2023-05-13T02:32:00.727Z,1015.33
2023-05-13T02:33:00.723Z,1015.34
2023-05-13T02:34:00.662Z,1015.34
2023-05-13T02:35:00.661Z,1015.32
2023-05-13T02:36:00.641Z,1015.35
2023-05-13T02:37:00.647Z,1015.38
2023-05-13T02:38:00.611Z,1015.31
2023-05-13T02:39:00.600Z,1015.32
2023-05-13T02:40:00.653Z,1015.34
2023-05-13T02:41:00.565Z,1015.34
2023-05-13T02:42:00.575Z,1015.34
2023-05-13T02:43:00.541Z,1015.34
2023-05-13T02:44:00.553Z,1015.33
2023-05-13T02:45:00.531Z,1015.37
2023-05-13T02:46:00.524Z,1015.38
2023-05-13T02:47:00.513Z,1015.35
2023-05-13T02:48:00.541Z,1015.38
2023-05-13T02:49:00.494Z,1015.40
2023-05-13T02:50:00.495Z,1015.34
2023-05-13T02:51:00.458Z,1015.42
2023-05-13T02:52:00.442Z,1015.43
2023-05-13T02:53:00.425Z,1015.45
2023-05-13T02:54:00.393Z,1015.45
2023-05-13T02:55:00.476Z,1015.46
2023-05-13T02:56:00.398Z,1015.42
2023-05-13T02:57:00.360Z,1015.43
2023-05-13T02:58:00.338Z,1015.45
2023-05-13T02:59:00.331Z,1015.45
2023-05-13T03:00:00.333Z,1015.49
2023-05-13T03:01:00.412Z,1015.50
2023-05-13T03:02:00.287Z,1015.48
2023-05-13T03:03:08.572Z,1015.50
2023-05-13T03:04:00.310Z,1015.48
2023-05-13T03:05:00.261Z,1015.47
2023-05-13T03:06:00.244Z,1015.46
2023-05-13T03:07:00.245Z,1015.49
2023-05-13T03:08:00.220Z,1015.48
2023-05-13T03:09:00.226Z,1015.43
2023-05-13T03:10:00.241Z,1015.51
2023-05-13T03:11:00.200Z,1015.51
2023-05-13T03:12:00.194Z,1015.49
2023-05-13T03:13:00.192Z,1015.47
2023-05-13T03:14:00.176Z,1015.49
2023-05-13T03:15:00.206Z,1015.53
2023-05-13T03:16:07.220Z,1015.53
2023-05-13T03:17:00.132Z,1015.55
2023-05-13T03:18:00.148Z,1015.54
2023-05-13T03:19:00.113Z,1015.50
2023-05-13T03:20:00.055Z,1015.58
2023-05-13T03:21:00.039Z,1015.54
2023-05-13T03:22:00.027Z,1015.55
2023-05-13T03:23:00.029Z,1015.50
2023-05-13T03:23:59.986Z,1015.53
2023-05-13T03:24:59.998Z,1015.51
2023-05-13T03:25:59.961Z,1015.53
2023-05-13T03:26:59.967Z,1015.52
2023-05-13T03:27:59.959Z,1015.47
2023-05-13T03:28:59.931Z,1015.53
2023-05-13T03:29:59.916Z,1015.51
2023-05-13T03:30:59.903Z,1015.54
2023-05-13T03:32:00.015Z,1015.49
2023-05-13T03:32:59.922Z,1015.48
2023-05-13T03:33:59.860Z,1015.57
2023-05-13T03:34:59.847Z,1015.57
2023-05-13T03:35:59.853Z,1015.54
2023-05-13T03:36:59.832Z,1015.58
2023-05-13T03:37:59.809Z,1015.61
2023-05-13T03:38:59.809Z,1015.58
2023-05-13T03:39:59.787Z,1015.64
2023-05-13T03:40:59.779Z,1015.69
2023-05-13T03:41:59.745Z,1015.65
2023-05-13T03:42:59.750Z,1015.63
2023-05-13T03:43:59.722Z,1015.65
2023-05-13T03:44:59.811Z,1015.61
2023-05-13T03:45:59.704Z,1015.65
2023-05-13T03:46:59.777Z,1015.68
2023-05-13T03:47:59.689Z,1015.67
2023-05-13T03:48:59.666Z,1015.72
2023-05-13T03:49:59.665Z,1015.72
2023-05-13T03:50:59.642Z,1015.75
2023-05-13T03:51:59.615Z,1015.76
2023-05-13T03:52:59.690Z,1015.76
2023-05-13T03:53:59.598Z,1015.72
2023-05-13T03:54:59.585Z,1015.76
2023-05-13T03:55:59.576Z,1015.79
2023-05-13T03:56:59.573Z,1015.76
2023-05-13T03:57:59.539Z,1015.78
2023-05-13T03:58:59.518Z,1015.81
2023-05-13T03:59:59.555Z,1015.77
2023-05-13T04:00:59.522Z,1015.78
2023-05-13T04:01:59.561Z,1015.79
2023-05-13T04:02:59.480Z,1015.81
2023-05-13T04:03:59.475Z,1015.80
2023-05-13T04:04:59.499Z,1015.81
2023-05-13T04:05:59.461Z,1015.81
2023-05-13T04:06:59.493Z,1015.84
2023-05-13T04:07:59.501Z,1015.86
2023-05-13T04:08:59.401Z,1015.81
2023-05-13T04:09:59.390Z,1015.84
2023-05-13T04:10:59.371Z,1015.83
2023-05-13T04:11:59.357Z,1015.90
2023-05-13T04:12:59.382Z,1015.91
2023-05-13T04:13:59.324Z,1015.88
2023-05-13T04:14:59.313Z,1015.89
2023-05-13T04:15:59.323Z,1015.91
2023-05-13T04:16:59.344Z,1015.90
2023-05-13T04:17:59.336Z,1015.91
2023-05-13T04:18:59.415Z,1015.87
2023-05-13T04:19:59.262Z,1015.95
2023-05-13T04:20:59.256Z,1015.94
2023-05-13T04:21:59.240Z,1015.94
2023-05-13T04:22:59.232Z,1015.97
2023-05-13T04:23:59.189Z,1016.01
2023-05-13T04:24:59.177Z,1016.00
2023-05-13T04:25:59.184Z,1015.97
2023-05-13T04:27:01.221Z,1015.97
2023-05-13T04:27:59.135Z,1016.02
2023-05-13T04:28:59.122Z,1016.02
2023-05-13T04:29:59.112Z,1016.03
2023-05-13T04:30:59.094Z,1016.03
2023-05-13T04:31:59.164Z,1016.02
2023-05-13T04:32:59.158Z,1016.05
2023-05-13T04:33:59.080Z,1016.04
2023-05-13T04:34:59.052Z,1016.10
2023-05-13T04:35:59.027Z,1016.12
2023-05-13T04:36:59.017Z,1016.14
2023-05-13T04:37:59.017Z,1016.12
2023-05-13T04:38:58.991Z,1016.12
2023-05-13T04:39:58.972Z,1016.15
2023-05-13T04:40:58.981Z,1016.11
2023-05-13T04:41:58.947Z,1016.19
2023-05-13T04:42:58.953Z,1016.11
2023-05-13T04:43:58.936Z,1016.13
2023-05-13T04:44:58.919Z,1016.13
2023-05-13T04:45:58.904Z,1016.12
2023-05-13T04:46:58.889Z,1016.15
2023-05-13T04:47:58.955Z,1016.20
2023-05-13T04:48:58.877Z,1016.18
2023-05-13T04:49:58.851Z,1016.20
2023-05-13T04:50:58.831Z,1016.24
2023-05-13T04:51:58.827Z,1016.24
2023-05-13T04:52:58.819Z,1016.25
2023-05-13T04:53:58.806Z,1016.25
2023-05-13T04:54:58.797Z,1016.22
2023-05-13T04:55:58.776Z,1016.23
2023-05-13T04:56:58.764Z,1016.25
2023-05-13T04:57:58.761Z,1016.22
2023-05-13T04:58:58.731Z,1016.23
2023-05-13T04:59:58.741Z,1016.25
2023-05-13T05:00:58.703Z,1016.23
2023-05-13T05:01:58.747Z,1016.27
2023-05-13T05:02:58.708Z,1016.34
2023-05-13T05:03:58.727Z,1016.34
2023-05-13T05:04:58.666Z,1016.35
2023-05-13T05:05:58.649Z,1016.36
2023-05-13T05:06:58.641Z,1016.36
2023-05-13T05:07:58.632Z,1016.35
2023-05-13T05:08:58.610Z,1016.34
2023-05-13T05:09:58.589Z,1016.34
2023-05-13T05:10:58.589Z,1016.33
2023-05-13T05:11:58.552Z,1016.36
2023-05-13T05:12:58.563Z,1016.26
2023-05-13T05:13:58.535Z,1016.28
2023-05-13T05:14:58.548Z,1016.27
2023-05-13T05:15:58.502Z,1016.29
2023-05-13T05:16:58.525Z,1016.37
2023-05-13T05:17:58.695Z,1016.30
2023-05-13T05:18:58.498Z,1016.34
2023-05-13T05:19:58.485Z,1016.34
2023-05-13T05:21:00.432Z,1016.37
2023-05-13T05:21:58.432Z,1016.35
2023-05-13T05:22:58.431Z,1016.32
2023-05-13T05:23:58.423Z,1016.36
2023-05-13T05:24:58.392Z,1016.38
2023-05-13T05:26:10.573Z,1016.39
2023-05-13T05:26:59.381Z,1016.39
2023-05-13T05:27:58.359Z,1016.40
2023-05-13T05:28:58.359Z,1016.40
2023-05-13T05:29:58.324Z,1016.42
2023-05-13T05:30:58.335Z,1016.39
2023-05-13T05:31:58.342Z,1016.41
2023-05-13T05:32:58.327Z,1016.46
2023-05-13T05:33:58.275Z,1016.40
2023-05-13T05:34:58.283Z,1016.39
2023-05-13T05:36:05.425Z,1016.39
2023-05-13T05:36:58.269Z,1016.44
2023-05-13T05:37:58.254Z,1016.39
2023-05-13T05:38:58.238Z,1016.41
2023-05-13T05:39:58.206Z,1016.43
2023-05-13T05:40:58.217Z,1016.40
2023-05-13T05:41:58.199Z,1016.46
2023-05-13T05:42:58.178Z,1016.45
2023-05-13T05:43:58.176Z,1016.50
2023-05-13T05:44:58.240Z,1016.50
2023-05-13T05:45:58.173Z,1016.53
2023-05-13T05:46:58.142Z,1016.51
2023-05-13T05:47:58.254Z,1016.50
2023-05-13T05:48:58.111Z,1016.53
2023-05-13T05:49:58.115Z,1016.51
2023-05-13T05:50:58.080Z,1016.49
2023-05-13T05:51:58.058Z,1016.53
2023-05-13T05:52:58.056Z,1016.50
2023-05-13T05:53:58.036Z,1016.57
2023-05-13T05:54:58.034Z,1016.54
2023-05-13T05:55:58.000Z,1016.51
2023-05-13T05:56:58.001Z,1016.52
2023-05-13T05:57:57.993Z,1016.54
2023-05-13T05:58:57.994Z,1016.59
2023-05-13T05:59:57.945Z,1016.58
2023-05-13T06:00:57.934Z,1016.59
2023-05-13T06:01:57.983Z,1016.63
2023-05-13T06:02:57.993Z,1016.61
2023-05-13T06:03:58.013Z,1016.57
2023-05-13T06:04:57.911Z,1016.57
2023-05-13T06:05:57.865Z,1016.58
2023-05-13T06:06:57.898Z,1016.61
2023-05-13T06:07:57.840Z,1016.55
2023-05-13T06:08:57.838Z,1016.53
2023-05-13T06:09:57.809Z,1016.50
2023-05-13T06:10:57.823Z,1016.47
2023-05-13T06:11:57.790Z,1016.41
2023-05-13T06:12:57.797Z,1016.50
2023-05-13T06:13:57.780Z,1016.45
2023-05-13T06:14:57.766Z,1016.48
2023-05-13T06:15:57.818Z,1016.49
2023-05-13T06:16:57.730Z,1016.46
2023-05-13T06:17:57.721Z,1016.43
2023-05-13T06:18:57.765Z,1016.44
2023-05-13T06:19:57.716Z,1016.46
2023-05-13T06:20:57.711Z,1016.50
2023-05-13T06:21:57.655Z,1016.43
2023-05-13T06:22:57.664Z,1016.48
2023-05-13T06:23:57.629Z,1016.48
2023-05-13T06:24:57.680Z,1016.50
2023-05-13T06:25:57.620Z,1016.52
2023-05-13T06:26:57.600Z,1016.54
2023-05-13T06:27:57.595Z,1016.46
2023-05-13T06:28:57.570Z,1016.44
2023-05-13T06:29:57.550Z,1016.48
2023-05-13T06:30:57.640Z,1016.49
2023-05-13T06:31:57.557Z,1016.49
2023-05-13T06:33:02.066Z,1016.45
2023-05-13T06:33:58.508Z,1016.44
2023-05-13T06:34:57.495Z,1016.51
2023-05-13T06:35:57.488Z,1016.47
2023-05-13T06:36:57.474Z,1016.45
2023-05-13T06:37:57.469Z,1016.39
2023-05-13T06:38:57.450Z,1016.44
2023-05-13T06:39:57.446Z,1016.41
2023-05-13T06:40:57.415Z,1016.36
2023-05-13T06:41:57.420Z,1016.43
2023-05-13T06:42:57.391Z,1016.37
2023-05-13T06:43:57.397Z,1016.35
2023-05-13T06:44:57.369Z,1016.37
2023-05-13T06:45:57.353Z,1016.33
2023-05-13T06:46:57.372Z,1016.37
2023-05-13T06:47:57.391Z,1016.37
2023-05-13T06:48:57.322Z,1016.31
2023-05-13T06:49:57.324Z,1016.35
2023-05-13T06:50:57.279Z,1016.37
2023-05-13T06:51:57.307Z,1016.39
2023-05-13T06:52:57.264Z,1016.28
2023-05-13T06:53:57.251Z,1016.28
2023-05-13T06:54:57.256Z,1016.29
2023-05-13T06:55:57.239Z,1016.31
2023-05-13T06:56:57.226Z,1016.30
2023-05-13T06:57:57.262Z,1016.31
2023-05-13T06:58:57.189Z,1016.28
2023-05-13T06:59:57.186Z,1016.31
2023-05-13T07:00:57.193Z,1016.24
2023-05-13T07:01:57.141Z,1016.22
2023-05-13T07:02:57.135Z,1016.22
2023-05-13T07:03:57.205Z,1016.23
2023-05-13T07:04:57.104Z,1016.21
2023-05-13T07:05:57.118Z,1016.19
2023-05-13T07:06:57.086Z,1016.20
2023-05-13T07:07:57.067Z,1016.25
2023-05-13T07:08:57.060Z,1016.14
2023-05-13T07:09:57.061Z,1016.12
2023-05-13T07:10:57.014Z,1016.15
2023-05-13T07:11:57.033Z,1016.15
2023-05-13T07:12:56.985Z,1016.15
2023-05-13T07:13:57.000Z,1016.18
2023-05-13T07:14:57.008Z,1016.21
2023-05-13T07:15:56.983Z,1016.22
2023-05-13T07:16:57.015Z,1016.22
2023-05-13T07:17:56.953Z,1016.17
2023-05-13T07:18:57.019Z,1016.19
2023-05-13T07:19:56.950Z,1016.21
2023-05-13T07:20:56.928Z,1016.25
2023-05-13T07:21:56.894Z,1016.22
2023-05-13T07:22:56.861Z,1016.19
2023-05-13T07:23:56.875Z,1016.09
2023-05-13T07:24:56.834Z,1016.10
2023-05-13T07:25:56.846Z,1016.18
2023-05-13T07:26:56.865Z,1016.11
2023-05-13T07:27:56.821Z,1016.11
2023-05-13T07:28:56.802Z,1016.04
2023-05-13T07:29:56.770Z,1016.13
2023-05-13T07:30:57.372Z,1016.13
2023-05-13T07:31:56.758Z,1016.09
2023-05-13T07:32:56.795Z,1016.15
2023-05-13T07:33:56.734Z,1016.10
2023-05-13T07:34:56.711Z,1016.16
2023-05-13T07:35:56.736Z,1016.15
2023-05-13T07:36:56.697Z,1016.05
2023-05-13T07:37:56.691Z,1016.07
2023-05-13T07:38:56.667Z,1016.07
2023-05-13T07:39:56.659Z,1016.06
2023-05-13T07:40:56.627Z,1016.18
2023-05-13T07:41:56.629Z,1016.08
2023-05-13T07:42:56.617Z,1016.07
2023-05-13T07:43:56.598Z,1016.04
2023-05-13T07:44:56.591Z,1016.06
2023-05-13T07:45:56.597Z,1016.15
2023-05-13T07:46:56.636Z,1016.05
2023-05-13T07:47:56.630Z,1016.06
2023-05-13T07:48:56.530Z,1016.12
2023-05-13T07:49:56.579Z,1016.06
2023-05-13T07:50:56.609Z,1016.07
2023-05-13T07:51:56.513Z,1016.09
2023-05-13T07:52:56.504Z,1016.06
2023-05-13T07:53:56.465Z,1016.07
2023-05-13T07:54:56.461Z,1016.13
2023-05-13T07:55:56.463Z,1016.08
2023-05-13T07:56:56.414Z,1016.13
2023-05-13T07:57:56.468Z,1016.20
2023-05-13T07:58:56.414Z,1015.92
2023-05-13T07:59:56.399Z,1016.03
2023-05-13T08:00:56.380Z,1016.03
2023-05-13T08:01:56.386Z,1016.01
2023-05-13T08:02:56.414Z,1016.05
2023-05-13T08:03:56.737Z,1016.11
2023-05-13T08:04:56.378Z,1016.04
2023-05-13T08:05:56.324Z,1016.03
2023-05-13T08:06:56.304Z,1016.03
2023-05-13T08:07:56.316Z,1016.00
2023-05-13T08:08:56.278Z,1016.04
2023-05-13T08:09:56.276Z,1016.04
2023-05-13T08:10:56.257Z,1016.01
2023-05-13T08:11:57.170Z,1016.01
2023-05-13T08:12:56.233Z,1016.02
2023-05-13T08:13:56.218Z,1015.95
2023-05-13T08:14:56.204Z,1016.04
2023-05-13T08:15:56.228Z,1015.98
2023-05-13T08:16:56.211Z,1015.97
2023-05-13T08:17:56.260Z,1016.01
2023-05-13T08:18:56.189Z,1016.02
2023-05-13T08:19:56.570Z,1015.99
2023-05-13T08:20:56.230Z,1016.03
2023-05-13T08:21:56.201Z,1016.02
2023-05-13T08:22:56.149Z,1016.13
2023-05-13T08:23:56.124Z,1016.06
2023-05-13T08:24:56.061Z,1016.09
2023-05-13T08:25:56.071Z,1016.07
2023-05-13T08:26:56.064Z,1016.12
2023-05-13T08:27:56.038Z,1016.11
2023-05-13T08:28:56.008Z,1016.17
2023-05-13T08:29:56.063Z,1016.03
2023-05-13T08:30:55.982Z,1016.07
2023-05-13T08:31:56.000Z,1016.02
2023-05-13T08:32:56.003Z,1016.02
2023-05-13T08:33:55.956Z,1016.01
2023-05-13T08:34:55.941Z,1016.10
2023-05-13T08:35:55.944Z,1016.02
2023-05-13T08:36:55.904Z,1016.03
2023-05-13T08:37:55.901Z,1016.01
2023-05-13T08:38:55.883Z,1016.05
2023-05-13T08:39:55.881Z,1016.08
2023-05-13T08:40:55.845Z,1016.09
2023-05-13T08:41:55.854Z,1016.19
2023-05-13T08:42:55.842Z,1016.03
2023-05-13T08:43:55.817Z,1016.09
2023-05-13T08:44:55.806Z,1016.07
2023-05-13T08:45:55.894Z,1016.10
2023-05-13T08:46:55.787Z,1016.10
2023-05-13T08:47:55.899Z,1016.07
2023-05-13T08:48:55.780Z,1016.08
2023-05-13T08:49:55.771Z,1016.11
2023-05-13T08:50:55.743Z,1016.12
2023-05-13T08:51:55.812Z,1016.08
2023-05-13T08:52:55.734Z,1016.09
2023-05-13T08:53:55.739Z,1016.07
2023-05-13T08:54:55.707Z,1016.06
2023-05-13T08:55:55.660Z,1016.07
2023-05-13T08:56:55.662Z,1016.02
2023-05-13T08:57:55.697Z,1016.07
2023-05-13T08:58:55.623Z,1016.06
2023-05-13T08:59:55.638Z,1016.07
2023-05-13T09:00:55.649Z,1016.07
2023-05-13T09:01:55.603Z,1016.10
2023-05-13T09:02:55.670Z,1016.16
2023-05-13T09:03:55.587Z,1016.10
2023-05-13T09:04:55.582Z,1016.12
2023-05-13T09:05:55.533Z,1016.12
2023-05-13T09:06:55.535Z,1016.06
2023-05-13T09:07:55.552Z,1016.05
2023-05-13T09:08:55.510Z,1016.03
2023-05-13T09:09:55.510Z,1015.97
2023-05-13T09:10:55.480Z,1015.94
2023-05-13T09:11:55.472Z,1015.99
2023-05-13T09:12:55.518Z,1016.00
2023-05-13T09:13:55.455Z,1015.97
2023-05-13T09:14:55.417Z,1015.99
2023-05-13T09:16:55.992Z,1015.92
2023-05-13T09:17:56.029Z,1015.94
2023-05-13T09:18:56.099Z,1015.92
2023-05-13T09:19:55.946Z,1015.94
2023-05-13T09:20:56.000Z,1015.89
2023-05-13T09:21:55.900Z,1015.90
2023-05-13T09:22:55.896Z,1015.87
2023-05-13T09:23:55.876Z,1015.89
2023-05-13T09:24:55.873Z,1015.88
2023-05-13T09:25:55.841Z,1015.96
2023-05-13T09:26:55.838Z,1015.81
2023-05-13T09:27:55.831Z,1015.88
2023-05-13T09:28:55.786Z,1015.82
2023-05-13T09:29:55.842Z,1015.83
2023-05-13T09:30:55.863Z,1015.82
2023-05-13T09:31:55.755Z,1015.83
2023-05-13T09:32:55.763Z,1015.83
2023-05-13T09:33:55.717Z,1015.92
2023-05-13T09:34:55.804Z,1015.79
2023-05-13T09:35:55.700Z,1015.92
2023-05-13T09:36:55.676Z,1015.89
2023-05-13T09:37:55.682Z,1015.91
2023-05-13T09:38:55.668Z,1015.89
2023-05-13T09:39:55.653Z,1015.84
2023-05-13T09:40:55.686Z,1015.81
2023-05-13T09:41:55.638Z,1015.89
2023-05-13T09:42:55.600Z,1015.86
2023-05-13T09:43:55.626Z,1015.82
2023-05-13T09:44:55.573Z,1015.83
2023-05-13T09:45:55.580Z,1015.72
2023-05-13T09:46:55.573Z,1015.78
2023-05-13T09:47:55.580Z,1015.84
2023-05-13T09:48:57.067Z,1015.80
2023-05-13T09:49:55.523Z,1015.71
2023-05-13T09:50:55.510Z,1015.69
2023-05-13T09:51:55.483Z,1015.72
2023-05-13T09:52:55.486Z,1015.81
2023-05-13T09:53:55.488Z,1015.70
2023-05-13T09:54:55.464Z,1015.74
2023-05-13T09:55:55.442Z,1015.76
2023-05-13T09:56:55.425Z,1015.65
2023-05-13T09:57:55.421Z,1015.69
2023-05-13T09:58:55.425Z,1015.65
2023-05-13T09:59:55.400Z,1015.67
2023-05-13T10:00:55.514Z,1015.63
2023-05-13T10:01:55.405Z,1015.66
2023-05-13T10:02:55.446Z,1015.54
2023-05-13T10:03:55.402Z,1015.68
2023-05-13T10:04:55.344Z,1015.69
2023-05-13T10:05:55.304Z,1015.62
2023-05-13T10:06:55.301Z,1015.54
2023-05-13T10:07:55.274Z,1015.55
2023-05-13T10:08:55.257Z,1015.52
2023-05-13T10:09:55.259Z,1015.57
2023-05-13T10:10:55.263Z,1015.53
2023-05-13T10:11:55.233Z,1015.56
2023-05-13T10:12:55.228Z,1015.59
2023-05-13T10:13:55.193Z,1015.46
2023-05-13T10:14:55.212Z,1015.56
2023-05-13T10:15:55.165Z,1015.55
2023-05-13T10:16:55.249Z,1015.60
2023-05-13T10:17:55.214Z,1015.60
2023-05-13T10:18:55.193Z,1015.69
2023-05-13T10:19:55.140Z,1015.65
2023-05-13T10:20:55.152Z,1015.69
2023-05-13T10:21:55.086Z,1015.74
2023-05-13T10:22:55.078Z,1015.66
2023-05-13T10:23:55.064Z,1015.63
2023-05-13T10:24:55.064Z,1015.58
2023-05-13T10:25:55.055Z,1015.64
2023-05-13T10:26:55.023Z,1015.56
2023-05-13T10:27:55.014Z,1015.60
2023-05-13T10:28:55.001Z,1015.61
2023-05-13T10:29:54.998Z,1015.52
2023-05-13T10:30:55.035Z,1015.61
2023-05-13T10:31:55.033Z,1015.70
2023-05-13T10:32:54.948Z,1015.61
2023-05-13T10:33:54.930Z,1015.65
2023-05-13T10:34:54.915Z,1015.66
2023-05-13T10:35:54.930Z,1015.70
2023-05-13T10:36:54.911Z,1015.50
2023-05-13T10:37:54.914Z,1015.63
2023-05-13T10:38:54.897Z,1015.61
2023-05-13T10:39:54.854Z,1015.55
2023-05-13T10:40:54.886Z,1015.53
2023-05-13T10:41:54.892Z,1015.60
2023-05-13T10:42:54.838Z,1015.52
2023-05-13T10:43:54.837Z,1015.49
2023-05-13T10:44:54.809Z,1015.59
2023-05-13T10:45:54.796Z,1015.59
2023-05-13T10:46:54.792Z,1015.55
2023-05-13T10:47:54.841Z,1015.57
2023-05-13T10:48:54.758Z,1015.65
2023-05-13T10:49:54.766Z,1015.53
2023-05-13T10:50:54.699Z,1015.54
2023-05-13T10:51:54.707Z,1015.56
2023-05-13T10:52:54.684Z,1015.49
2023-05-13T10:53:54.677Z,1015.48
2023-05-13T10:54:54.658Z,1015.52
2023-05-13T10:55:54.651Z,1015.54
2023-05-13T10:56:54.655Z,1015.52
2023-05-13T10:57:54.674Z,1015.59
2023-05-13T10:58:54.617Z,1015.59
2023-05-13T10:59:56.310Z,1015.53
2023-05-13T11:00:56.490Z,1015.43
2023-05-13T11:01:56.202Z,1015.45
2023-05-13T11:02:56.358Z,1015.52
2023-05-13T11:03:56.605Z,1015.57
2023-05-13T11:04:56.132Z,1015.48
2023-05-13T11:05:56.297Z,1015.42
2023-05-13T11:06:56.472Z,1015.39
2023-05-13T11:07:56.187Z,1015.44
2023-05-13T11:08:56.532Z,1015.47
2023-05-13T11:09:56.001Z,1015.41
2023-05-13T11:10:56.166Z,1015.46
2023-05-13T11:11:56.323Z,1015.40
2023-05-13T11:12:57.009Z,1015.39
2023-05-13T11:13:56.166Z,1015.44
2023-05-13T11:14:56.347Z,1015.43
2023-05-13T11:15:56.064Z,1015.42
2023-05-13T11:16:56.165Z,1015.41
2023-05-13T11:17:56.396Z,1015.39
2023-05-13T11:18:56.035Z,1015.37
2023-05-13T11:19:56.229Z,1015.39
2023-05-13T11:20:55.927Z,1015.42
2023-05-13T11:21:56.071Z,1015.39
2023-05-13T11:22:56.217Z,1015.43
2023-05-13T11:23:55.868Z,1015.40
2023-05-13T11:24:56.066Z,1015.43
2023-05-13T11:25:56.247Z,1015.34
2023-05-13T11:26:55.935Z,1015.37
2023-05-13T11:27:56.127Z,1015.38
2023-05-13T11:28:55.815Z,1015.34
2023-05-13T11:29:55.974Z,1015.32
2023-05-13T11:30:56.162Z,1015.31
2023-05-13T11:31:57.144Z,1015.36
2023-05-13T11:32:56.096Z,1015.29
2023-05-13T11:33:56.128Z,1015.31
2023-05-13T11:34:55.786Z,1015.23
2023-05-13T11:35:55.966Z,1015.17
2023-05-13T11:36:55.636Z,1015.29
2023-05-13T11:37:57.573Z,1015.17
2023-05-13T11:38:56.007Z,1015.21
2023-05-13T11:39:55.643Z,1015.22
2023-05-13T11:40:55.820Z,1015.20
2023-05-13T11:41:55.998Z,1015.23
2023-05-13T11:42:55.659Z,1015.24
2023-05-13T11:43:55.801Z,1015.29
2023-05-13T11:44:55.962Z,1015.27
2023-05-13T11:45:55.654Z,1015.27
2023-05-13T11:46:55.800Z,1015.26
2023-05-13T11:47:54.008Z,1015.23
2023-05-13T11:48:55.652Z,1015.25
2023-05-13T11:49:55.804Z,1015.33
2023-05-13T11:50:55.461Z,1015.24
2023-05-13T11:51:55.622Z,1015.27
2023-05-13T11:52:53.925Z,1015.13
2023-05-13T11:53:55.578Z,1015.23
2023-05-13T11:54:55.778Z,1015.16
2023-05-13T11:55:55.461Z,1015.22
2023-05-13T11:56:55.626Z,1015.14
2023-05-13T11:57:55.784Z,1015.05
2023-05-13T11:58:55.497Z,1015.23
2023-05-13T11:59:55.675Z,1015.22
2023-05-13T12:00:55.330Z,1015.21
2023-05-13T12:01:55.549Z,1015.22
2023-05-13T12:02:55.826Z,1015.18
2023-05-13T12:03:55.403Z,1015.22
2023-05-13T12:04:55.590Z,1015.11
2023-05-13T12:05:55.744Z,1015.09